Time;durP1;ratioP1;P1;durP2;ratioP2;P2;SDS_P1;SDS_P2;PMS_P1;PMS_P2;Temp;Humidity;BMP_temperature;BMP_pressure;BME280_temperature;BME280_humidity;BME280_pressure;Samples;Min_cycle;Max_cycle;Signal;HPM_P1;HPM_P2
2022/06/12 00:00:27;;;;;;;0.40;0.40;;;14.20;99.90;;;;;;5114983;28;20174;-68
2022/06/12 00:02:53;;;;;;;0.30;0.30;;;14.20;99.90;;;;;;5114703;28;20191;-68
2022/06/12 00:05:23;;;;;;;0.30;0.30;;;14.10;99.90;;;;;;5115046;28;20817;-69
2022/06/12 00:07:48;;;;;;;0.30;0.30;;;14.10;99.90;;;;;;5114964;28;20509;-68
2022/06/12 00:10:14;;;;;;;0.30;0.30;;;14.10;99.90;;;;;;5114981;28;20939;-68
2022/06/12 00:12:42;;;;;;;0.70;0.70;;;14.20;99.90;;;;;;5114392;28;20208;-70
2022/06/12 00:15:09;;;;;;;0.43;0.43;;;14.20;99.90;;;;;;5114867;28;20398;-70
2022/06/12 00:17:35;;;;;;;0.30;0.30;;;14.20;99.90;;;;;;5114514;28;20753;-70
2022/06/12 00:20:00;;;;;;;0.30;0.30;;;14.10;99.90;;;;;;5114735;28;20405;-69
2022/06/12 00:22:26;;;;;;;0.30;0.30;;;14.10;99.90;;;;;;5114098;28;20193;-68
2022/06/12 00:24:51;;;;;;;0.30;0.30;;;14.00;99.90;;;;;;5113259;28;20194;-69
2022/06/12 00:27:18;;;;;;;0.80;0.80;;;14.00;99.90;;;;;;5114405;28;20534;-69
2022/06/12 00:29:44;;;;;;;0.30;0.30;;;13.90;99.90;;;;;;5114448;28;20168;-68
2022/06/12 00:32:14;;;;;;;0.30;0.30;;;13.90;99.90;;;;;;5114178;28;20810;-69
2022/06/12 00:34:44;;;;;;;0.30;0.30;;;13.80;99.90;;;;;;5114484;28;20913;-67
2022/06/12 00:37:11;;;;;;;0.90;0.90;;;13.80;99.90;;;;;;5114728;28;20405;-69
2022/06/12 00:39:38;;;;;;;0.30;0.30;;;13.90;99.90;;;;;;5114274;28;20406;-69
2022/06/12 00:42:05;;;;;;;0.40;0.40;;;13.90;99.90;;;;;;5114135;28;20496;-68
2022/06/12 00:44:39;;;;;;;0.30;0.30;;;13.90;99.90;;;;;;5114229;28;20420;-70
2022/06/12 00:47:10;;;;;;;0.30;0.30;;;13.90;99.90;;;;;;5114325;28;20762;-67
2022/06/12 00:49:42;;;;;;;0.40;0.40;;;13.80;99.90;;;;;;5114332;28;20913;-69
2022/06/12 00:52:18;;;;;;;0.30;0.30;;;13.80;99.90;;;;;;5113177;28;20455;-69
2022/06/12 00:54:47;;;;;;;0.30;0.30;;;13.80;99.90;;;;;;5114170;28;20408;-70
2022/06/12 00:57:14;;;;;;;0.40;0.40;;;13.90;99.90;;;;;;5114141;28;20393;-69
2022/06/12 00:59:47;;;;;;;0.30;0.30;;;13.90;99.90;;;;;;5114132;28;20401;-70
2022/06/12 01:02:17;;;;;;;0.30;0.30;;;13.90;99.90;;;;;;5113767;28;20401;-69
2022/06/12 01:07:35;;;;;;;0.30;0.30;;;13.90;99.90;;;;;;5114176;28;20897;-70
2022/06/12 01:10:04;;;;;;;0.30;0.30;;;13.90;99.90;;;;;;5114118;28;20448;-70
2022/06/12 01:12:34;;;;;;;0.30;0.30;;;13.90;99.90;;;;;;5113790;28;20902;-69
2022/06/12 01:15:05;;;;;;;0.30;0.30;;;13.80;99.90;;;;;;5113921;28;20393;-69
2022/06/12 01:17:31;;;;;;;0.30;0.30;;;13.70;99.90;;;;;;5113804;28;20398;-69
2022/06/12 01:20:03;;;;;;;0.30;0.30;;;13.70;99.90;;;;;;5113819;28;20398;-69
2022/06/12 01:22:43;;;;;;;0.30;0.30;;;13.70;99.90;;;;;;5113623;28;20444;-70
2022/06/12 01:25:42;;;;;;;0.30;0.30;;;13.70;99.90;;;;;;5113759;28;20401;-69
2022/06/12 01:28:44;;;;;;;0.30;0.30;;;13.70;99.90;;;;;;5113852;28;20398;-70
2022/06/12 01:31:12;;;;;;;0.30;0.30;;;13.70;99.90;;;;;;5113673;28;20447;-69
2022/06/12 01:33:43;;;;;;;0.30;0.30;;;13.80;99.90;;;;;;5113459;28;20853;-70
2022/06/12 01:36:39;;;;;;;0.30;0.30;;;13.90;99.90;;;;;;5113904;28;20428;-69
2022/06/12 01:39:24;;;;;;;0.30;0.30;;;13.90;99.90;;;;;;5113742;28;20410;-69
2022/06/12 01:42:13;;;;;;;0.30;0.30;;;13.90;99.90;;;;;;5113637;28;20407;-68
2022/06/12 01:44:45;;;;;;;0.40;0.40;;;13.80;99.90;;;;;;5113653;28;20869;-70
2022/06/12 01:47:31;;;;;;;0.40;0.40;;;13.80;99.90;;;;;;5113373;28;20801;-70
2022/06/12 01:50:20;;;;;;;0.30;0.30;;;13.70;99.90;;;;;;5113648;28;20404;-69
2022/06/12 01:53:02;;;;;;;0.30;0.30;;;13.60;99.90;;;;;;5113229;28;20452;-69
2022/06/12 01:55:41;;;;;;;0.30;0.30;;;13.50;99.90;;;;;;5112213;28;20402;-69
2022/06/12 01:58:20;;;;;;;0.37;0.37;;;13.50;99.90;;;;;;5113687;28;20485;-69
2022/06/12 02:00:52;;;;;;;0.30;0.30;;;13.50;99.90;;;;;;5113497;28;20394;-69
2022/06/12 02:03:33;;;;;;;0.50;0.50;;;13.40;99.90;;;;;;5114286;28;20423;-68
2022/06/12 02:06:10;;;;;;;0.30;0.30;;;13.60;99.90;;;;;;5117219;28;20402;-69
2022/06/12 02:08:41;;;;;;;0.90;0.53;;;13.60;99.90;;;;;;5117314;28;20402;-69
2022/06/12 02:14:12;;;;;;;0.30;0.30;;;13.50;99.90;;;;;;5116830;28;20981;-69
2022/06/12 02:16:43;;;;;;;0.30;0.30;;;13.50;99.90;;;;;;5117119;28;20401;-70
2022/06/12 02:19:20;;;;;;;0.40;0.40;;;13.50;99.90;;;;;;5117187;28;20889;-67
2022/06/12 02:21:53;;;;;;;0.30;0.30;;;13.50;99.90;;;;;;5117029;28;20413;-69
2022/06/12 02:24:21;;;;;;;0.37;0.37;;;13.50;99.90;;;;;;5116547;28;20862;-70
2022/06/12 02:27:11;;;;;;;0.30;0.30;;;13.50;99.90;;;;;;5116988;28;20394;-70
2022/06/12 02:29:45;;;;;;;0.30;0.30;;;13.40;99.90;;;;;;5116681;28;20404;-68
2022/06/12 02:32:18;;;;;;;0.30;0.30;;;13.40;99.90;;;;;;5116449;28;20457;-68
2022/06/12 02:34:50;;;;;;;0.30;0.30;;;13.40;99.90;;;;;;5116808;28;20379;-69
2022/06/12 02:37:21;;;;;;;0.40;0.40;;;13.30;99.90;;;;;;5116766;28;20418;-68
2022/06/12 02:39:53;;;;;;;0.30;0.30;;;13.30;99.90;;;;;;5116751;28;20397;-68
2022/06/12 02:42:28;;;;;;;0.40;0.40;;;13.40;99.90;;;;;;5116232;28;20405;-69
2022/06/12 02:45:04;;;;;;;0.30;0.30;;;13.50;99.90;;;;;;5116568;28;20393;-69
2022/06/12 02:47:32;;;;;;;0.30;0.30;;;13.50;99.90;;;;;;5116505;28;20506;-68
2022/06/12 02:49:58;;;;;;;0.30;0.30;;;13.50;99.90;;;;;;5116532;28;20397;-70
2022/06/12 02:52:42;;;;;;;0.30;0.30;;;13.50;99.90;;;;;;5115911;28;20452;-68
2022/06/12 02:55:19;;;;;;;0.30;0.30;;;13.40;99.90;;;;;;5116455;28;20470;-70
2022/06/12 02:58:09;;;;;;;0.30;0.30;;;13.40;99.90;;;;;;5116521;28;20405;-69
2022/06/12 03:00:56;;;;;;;0.30;0.30;;;13.40;99.90;;;;;;5116246;28;20434;-69
2022/06/12 03:03:44;;;;;;;0.30;0.30;;;13.30;99.90;;;;;;5115871;28;20431;-69
2022/06/12 03:06:12;;;;;;;0.30;0.30;;;13.30;99.90;;;;;;5116089;28;20406;-68
2022/06/12 03:08:44;;;;;;;0.37;0.37;;;13.30;99.90;;;;;;5116140;28;20787;-67
2022/06/12 03:11:21;;;;;;;0.40;0.40;;;13.30;99.90;;;;;;5116562;28;20468;-69
2022/06/12 03:13:50;;;;;;;0.30;0.30;;;13.30;99.90;;;;;;5115672;28;20428;-69
2022/06/12 03:16:27;;;;;;;0.30;0.30;;;13.30;99.90;;;;;;5115285;28;20853;-69
2022/06/12 03:19:04;;;;;;;0.40;0.40;;;13.30;99.90;;;;;;5115929;27;20401;-70
2022/06/12 03:21:47;;;;;;;0.30;0.30;;;13.30;99.90;;;;;;5115889;28;20402;-69
2022/06/12 03:24:41;;;;;;;0.30;0.30;;;13.20;99.90;;;;;;5115352;28;20502;-69
2022/06/12 03:27:15;;;;;;;0.30;0.30;;;13.20;99.90;;;;;;5115799;28;20407;-68
2022/06/12 03:29:50;;;;;;;0.30;0.30;;;13.20;99.90;;;;;;5115688;28;20404;-69
2022/06/12 03:32:30;;;;;;;0.30;0.30;;;13.20;99.90;;;;;;5115228;28;20543;-69
2022/06/12 03:35:14;;;;;;;0.30;0.30;;;13.30;99.90;;;;;;5114207;28;20417;-69
2022/06/12 03:37:53;;;;;;;0.30;0.30;;;13.30;99.90;;;;;;5115571;28;20433;-68
2022/06/12 03:40:46;;;;;;;0.30;0.30;;;13.30;99.90;;;;;;5116017;28;20485;-69
2022/06/12 03:43:32;;;;;;;0.30;0.30;;;13.30;99.90;;;;;;5115058;28;20412;-68
2022/06/12 03:46:25;;;;;;;0.47;0.47;;;13.20;99.90;;;;;;5115557;28;20474;-70
2022/06/12 03:48:50;;;;;;;0.30;0.30;;;13.20;99.90;;;;;;5115342;28;20401;-69
2022/06/12 03:51:55;;;;;;;0.53;0.53;;;13.30;99.90;;;;;;5115270;28;20474;-69
2022/06/12 03:55:05;;;;;;;0.30;0.30;;;13.30;99.90;;;;;;5114460;28;20241;-70
2022/06/12 03:57:51;;;;;;;0.30;0.30;;;13.30;99.90;;;;;;5115050;28;20413;-69
2022/06/12 04:00:41;;;;;;;0.40;0.40;;;13.40;99.90;;;;;;5115556;28;20924;-70
2022/06/12 04:03:13;;;;;;;0.30;0.30;;;13.40;99.90;;;;;;5114755;28;20429;-68
2022/06/12 04:05:44;;;;;;;0.30;0.30;;;13.40;99.90;;;;;;5115109;28;20910;-69
2022/06/12 04:08:17;;;;;;;0.30;0.30;;;13.40;99.90;;;;;;5115030;28;20736;-68
2022/06/12 04:10:44;;;;;;;0.30;0.30;;;13.30;99.90;;;;;;5114981;28;20490;-70
2022/06/12 04:13:12;;;;;;;0.30;0.30;;;13.30;99.90;;;;;;5114508;28;20426;-69
2022/06/12 04:15:45;;;;;;;0.30;0.30;;;13.40;99.90;;;;;;5114616;28;20392;-69
2022/06/12 04:18:12;;;;;;;0.30;0.30;;;13.40;99.90;;;;;;5114840;28;20418;-70
2022/06/12 04:21:00;;;;;;;0.30;0.30;;;13.50;99.90;;;;;;5114815;28;20877;-69
2022/06/12 04:23:42;;;;;;;0.30;0.30;;;13.60;99.90;;;;;;5114236;28;20495;-69
2022/06/12 04:26:29;;;;;;;0.30;0.30;;;14.10;99.90;;;;;;5114624;28;20426;-68
2022/06/12 04:29:12;;;;;;;0.30;0.30;;;14.70;99.90;;;;;;5114683;28;20496;-68
2022/06/12 04:31:44;;;;;;;0.30;0.30;;;15.20;99.90;;;;;;5114302;28;20436;-69
2022/06/12 04:34:25;;;;;;;0.30;0.30;;;15.60;99.90;;;;;;5114105;28;20433;-68
2022/06/12 04:36:58;;;;;;;0.37;0.37;;;16.00;99.90;;;;;;5114314;28;20927;-69
2022/06/12 04:39:28;;;;;;;0.30;0.30;;;16.40;99.90;;;;;;5114377;28;20394;-70
2022/06/12 04:41:55;;;;;;;0.30;0.30;;;16.60;99.90;;;;;;5114340;28;20398;-70
2022/06/12 04:44:21;;;;;;;0.80;0.80;;;16.80;99.90;;;;;;5113941;28;20417;-68
2022/06/12 04:46:50;;;;;;;0.30;0.30;;;16.90;99.30;;;;;;5114323;28;20406;-68
2022/06/12 04:49:19;;;;;;;0.40;0.40;;;17.00;99.50;;;;;;5114375;28;20414;-70
2022/06/12 04:51:46;;;;;;;0.30;0.30;;;17.30;99.30;;;;;;5114077;28;20495;-69
2022/06/12 04:54:13;;;;;;;0.30;0.30;;;17.80;98.60;;;;;;5113818;28;20428;-69
2022/06/12 04:56:39;;;;;;;0.30;0.30;;;18.20;98.20;;;;;;5114259;28;20404;-69
2022/06/12 04:59:05;;;;;;;0.30;0.30;;;18.50;96.80;;;;;;5114221;28;20397;-68
2022/06/12 05:01:34;;;;;;;0.40;0.40;;;18.70;95.90;;;;;;5114077;28;20413;-69
2022/06/12 05:04:02;;;;;;;0.40;0.40;;;18.90;95.80;;;;;;5113782;28;20508;-69
2022/06/12 05:06:29;;;;;;;0.50;0.50;;;19.00;95.60;;;;;;5114033;28;20535;-70
2022/06/12 05:08:55;;;;;;;0.30;0.30;;;19.10;95.30;;;;;;5114144;28;20921;-69
2022/06/12 05:11:22;;;;;;;0.30;0.30;;;19.10;94.90;;;;;;5114043;28;20533;-70
2022/06/12 05:13:48;;;;;;;0.30;0.30;;;18.90;94.70;;;;;;5113656;28;20191;-70
2022/06/12 05:16:34;;;;;;;0.30;0.30;;;18.80;94.90;;;;;;5113845;28;20421;-69
2022/06/12 05:19:00;;;;;;;0.67;0.67;;;18.90;96.00;;;;;;5114188;28;20398;-68
2022/06/12 05:21:28;;;;;;;1.33;1.23;;;19.10;95.50;;;;;;5113909;28;20412;-69
2022/06/12 05:23:54;;;;;;;0.30;0.30;;;19.30;95.10;;;;;;5113449;28;20452;-70
2022/06/12 05:26:21;;;;;;;0.30;0.30;;;19.40;95.50;;;;;;5113950;28;20759;-69
2022/06/12 05:28:47;;;;;;;0.30;0.30;;;19.40;94.30;;;;;;5113764;28;20462;-70
2022/06/12 05:31:13;;;;;;;0.30;0.30;;;19.40;94.80;;;;;;5113699;28;20473;-69
2022/06/12 05:33:39;;;;;;;0.30;0.30;;;19.40;94.70;;;;;;5113494;28;20200;-69
2022/06/12 05:36:06;;;;;;;0.30;0.30;;;19.70;94.50;;;;;;5113893;28;20393;-70
2022/06/12 05:38:32;;;;;;;0.30;0.30;;;19.90;94.70;;;;;;5115134;28;20173;-69
2022/06/12 05:40:58;;;;;;;0.30;0.30;;;20.30;95.10;;;;;;5116422;28;20849;-70
2022/06/12 05:43:24;;;;;;;0.30;0.30;;;20.90;94.80;;;;;;5117569;28;20451;-70
2022/06/12 05:45:49;;;;;;;0.30;0.30;;;21.30;93.80;;;;;;5117629;28;20197;-69
2022/06/12 05:48:18;;;;;;;0.93;0.93;;;21.30;93.00;;;;;;5117654;28;20619;-70
2022/06/12 05:51:02;;;;;;;0.40;0.40;;;21.10;93.20;;;;;;5117591;28;20173;-71
2022/06/12 05:53:30;;;;;;;0.30;0.30;;;20.90;93.80;;;;;;5117230;28;20428;-70
2022/06/12 05:55:57;;;;;;;0.73;0.73;;;20.80;94.10;;;;;;5117390;28;20433;-70
2022/06/12 05:58:24;;;;;;;0.30;0.30;;;20.90;93.90;;;;;;5117572;28;20429;-70
2022/06/12 06:00:51;;;;;;;0.30;0.30;;;20.90;93.80;;;;;;5117509;28;20389;-70
2022/06/12 06:03:17;;;;;;;0.30;0.30;;;21.10;93.90;;;;;;5117010;28;20422;-69
2022/06/12 06:05:45;;;;;;;0.30;0.30;;;21.70;93.50;;;;;;5117265;28;20889;-70
2022/06/12 06:08:12;;;;;;;0.30;0.30;;;22.40;93.10;;;;;;5117297;28;20742;-69
2022/06/12 06:10:38;;;;;;;0.30;0.30;;;23.00;92.20;;;;;;5117111;28;20368;-69
2022/06/12 06:13:05;;;;;;;0.40;0.40;;;23.60;91.40;;;;;;5116912;28;20432;-70
2022/06/12 06:15:30;;;;;;;0.30;0.30;;;24.30;90.20;;;;;;5117066;28;20418;-70
2022/06/12 06:17:56;;;;;;;0.30;0.30;;;25.40;88.00;;;;;;5117147;28;20394;-70
2022/06/12 06:20:29;;;;;;;0.30;0.30;;;26.40;84.60;;;;;;5117043;27;20176;-71
2022/06/12 06:22:55;;;;;;;0.30;0.30;;;27.10;81.40;;;;;;5116880;28;20819;-70
2022/06/12 06:25:23;;;;;;;0.30;0.30;;;27.40;79.50;;;;;;5116900;28;20376;-71
2022/06/12 06:27:49;;;;;;;0.63;0.63;;;27.60;77.60;;;;;;5116964;28;20431;-70
2022/06/12 06:30:16;;;;;;;0.30;0.30;;;27.70;76.90;;;;;;5116872;28;20397;-70
2022/06/12 06:32:41;;;;;;;0.40;0.40;;;28.00;75.10;;;;;;5116525;28;20457;-71
2022/06/12 06:35:09;;;;;;;0.30;0.30;;;28.70;71.30;;;;;;5116552;28;20406;-70
2022/06/12 06:37:35;;;;;;;0.30;0.30;;;29.50;70.50;;;;;;5116589;28;20160;-71
2022/06/12 06:40:02;;;;;;;0.40;0.40;;;29.90;68.80;;;;;;5116578;28;20463;-70
2022/06/12 06:42:28;;;;;;;0.50;0.50;;;30.50;65.80;;;;;;5116170;28;20555;-71
2022/06/12 06:47:38;;;;;;;0.40;0.40;;;33.00;58.50;;;;;;5116351;28;20441;-71
2022/06/12 06:50:06;;;;;;;0.40;0.40;;;34.40;55.90;;;;;;5115269;28;20422;-70
2022/06/12 06:52:32;;;;;;;0.30;0.30;;;35.50;51.60;;;;;;5115959;28;20247;-70
2022/06/12 06:54:58;;;;;;;0.80;0.60;;;36.30;48.10;;;;;;5116338;28;20441;-71
2022/06/12 06:57:23;;;;;;;1.07;1.07;;;37.10;46.10;;;;;;5116124;28;20179;-71
2022/06/12 06:59:49;;;;;;;0.43;0.43;;;37.80;44.90;;;;;;5116334;28;20168;-71
2022/06/12 07:02:15;;;;;;;0.40;0.30;;;38.40;43.90;;;;;;5116026;28;20527;-71
2022/06/12 07:04:41;;;;;;;0.30;0.30;;;38.80;42.20;;;;;;5116523;28;20172;-73
2022/06/12 07:07:08;;;;;;;0.30;0.30;;;38.70;41.60;;;;;;5116253;28;20168;-71
2022/06/12 07:09:34;;;;;;;0.40;0.30;;;38.80;42.40;;;;;;5116073;28;20172;-72
2022/06/12 07:12:01;;;;;;;0.50;0.50;;;39.10;41.60;;;;;;5115972;28;20455;-72
2022/06/12 07:14:27;;;;;;;0.40;0.30;;;39.10;40.10;;;;;;5115815;28;20418;-71
2022/06/12 07:16:53;;;;;;;0.40;0.40;;;39.00;38.80;;;;;;5116003;28;20416;-70
2022/06/12 07:19:19;;;;;;;0.30;0.30;;;39.30;40.10;;;;;;5115772;28;20398;-72
2022/06/12 07:21:45;;;;;;;0.33;0.30;;;39.80;39.10;;;;;;5115787;28;20191;-71
2022/06/12 07:24:11;;;;;;;0.30;0.30;;;40.30;38.60;;;;;;5115369;28;20453;-71
2022/06/12 07:26:39;;;;;;;0.40;0.40;;;40.70;36.80;;;;;;5115783;28;20171;-70
2022/06/12 07:29:06;;;;;;;0.40;0.40;;;41.00;36.60;;;;;;5115495;28;20444;-72
2022/06/12 07:31:32;;;;;;;0.40;0.40;;;41.00;36.10;;;;;;5115598;28;20445;-71
2022/06/12 07:33:58;;;;;;;0.40;0.40;;;41.10;36.80;;;;;;5115277;28;20979;-71
2022/06/12 07:36:24;;;;;;;0.80;0.80;;;41.30;35.70;;;;;;5115490;28;20902;-69
2022/06/12 07:38:50;;;;;;;0.50;0.40;;;41.90;35.60;;;;;;5115500;28;20433;-70
2022/06/12 07:41:18;;;;;;;0.30;0.30;;;42.30;32.80;;;;;;5115165;28;20442;-70
2022/06/12 07:43:46;;;;;;;0.40;0.40;;;42.90;33.90;;;;;;5115151;28;20180;-70
2022/06/12 07:46:15;;;;;;;0.30;0.30;;;42.90;30.40;;;;;;5115694;28;20456;-70
2022/06/12 07:48:42;;;;;;;0.30;0.30;;;43.30;32.70;;;;;;5115315;27;20406;-70
2022/06/12 07:51:18;;;;;;;0.30;0.30;;;43.70;31.90;;;;;;5115410;28;20405;-70
2022/06/12 07:53:45;;;;;;;0.37;0.37;;;44.00;30.60;;;;;;5115197;28;20417;-70
2022/06/12 07:56:12;;;;;;;0.30;0.30;;;44.10;29.10;;;;;;5115060;28;20401;-70
2022/06/12 07:58:38;;;;;;;0.40;0.40;;;43.40;29.70;;;;;;5115181;28;20401;-70
2022/06/12 08:01:06;;;;;;;0.40;0.40;;;43.40;28.90;;;;;;5114723;28;20398;-69
2022/06/12 08:03:33;;;;;;;0.30;0.30;;;42.70;29.30;;;;;;5114609;28;20557;-69
2022/06/12 08:05:59;;;;;;;0.30;0.30;;;42.30;30.00;;;;;;5115066;28;20751;-69
2022/06/12 08:08:26;;;;;;;0.60;0.60;;;42.40;30.70;;;;;;5115002;28;20397;-69
2022/06/12 08:10:52;;;;;;;0.30;0.30;;;42.30;29.80;;;;;;5114936;28;20398;-69
2022/06/12 08:13:18;;;;;;;0.40;0.40;;;42.40;28.80;;;;;;5114403;28;20522;-69
2022/06/12 08:15:47;;;;;;;0.40;0.40;;;41.60;28.90;;;;;;5114877;28;20389;-69
2022/06/12 08:18:14;;;;;;;0.30;0.30;;;41.80;30.50;;;;;;5114853;28;20501;-69
2022/06/12 08:20:45;;;;;;;0.30;0.30;;;42.30;28.60;;;;;;5114721;28;20451;-70
2022/06/12 08:23:32;;;;;;;0.60;0.60;;;41.70;28.30;;;;;;5114264;28;20453;-70
2022/06/12 08:26:00;;;;;;;0.60;0.30;;;41.40;30.40;;;;;;5114809;28;20803;-70
2022/06/12 08:28:28;;;;;;;0.40;0.40;;;40.70;28.60;;;;;;5114689;28;20827;-68
2022/06/12 08:30:54;;;;;;;0.37;0.37;;;41.30;28.40;;;;;;5114542;28;20402;-70
2022/06/12 08:33:21;;;;;;;0.43;0.43;;;41.30;29.00;;;;;;5114193;28;20530;-69
2022/06/12 08:35:47;;;;;;;0.30;0.30;;;40.10;27.90;;;;;;5114360;28;20424;-69
2022/06/12 08:38:14;;;;;;;0.40;0.30;;;39.80;29.10;;;;;;5114317;28;20442;-72
2022/06/12 08:40:52;;;;;;;0.50;0.50;;;39.70;29.00;;;;;;5114302;28;20439;-70
2022/06/12 08:43:27;;;;;;;0.37;0.37;;;39.90;28.60;;;;;;5114243;28;20479;-71
2022/06/12 08:45:58;;;;;;;0.40;0.40;;;40.60;28.40;;;;;;5114292;28;20397;-71
2022/06/12 08:48:39;;;;;;;0.40;0.40;;;41.10;28.20;;;;;;5114206;28;20493;-71
2022/06/12 08:51:24;;;;;;;0.40;0.37;;;41.40;27.10;;;;;;5114131;28;20410;-70
2022/06/12 08:53:56;;;;;;;0.63;0.63;;;41.90;27.90;;;;;;5113992;28;20432;-71
2022/06/12 08:56:32;;;;;;;0.30;0.30;;;42.10;28.30;;;;;;5114217;28;20486;-70
2022/06/12 08:59:35;;;;;;;0.30;0.30;;;41.60;28.20;;;;;;5114034;28;20447;-71
2022/06/12 09:02:04;;;;;;;0.40;0.40;;;41.70;26.90;;;;;;5113925;28;20493;-71
2022/06/12 09:04:30;;;;;;;0.70;0.70;;;40.90;26.90;;;;;;5114069;28;20406;-71
2022/06/12 09:07:12;;;;;;;0.40;0.40;;;40.40;26.50;;;;;;5114200;28;20417;-71
2022/06/12 09:09:51;;;;;;;0.40;0.40;;;40.20;28.20;;;;;;5113991;28;20406;-71
2022/06/12 09:12:24;;;;;;;0.40;0.30;;;40.50;28.90;;;;;;5113911;28;20454;-70
2022/06/12 09:15:02;;;;;;;0.40;0.40;;;40.10;26.90;;;;;;5117595;28;20402;-69
2022/06/12 09:17:43;;;;;;;1.07;0.50;;;39.60;27.70;;;;;;5118445;28;20398;-71
2022/06/12 09:20:32;;;;;;;0.40;0.40;;;39.20;30.00;;;;;;5118369;28;20405;-71
2022/06/12 09:23:25;;;;;;;0.40;0.30;;;38.60;30.00;;;;;;5117702;28;20602;-70
2022/06/12 09:25:54;;;;;;;0.57;0.50;;;39.40;28.70;;;;;;5118002;28;20446;-71
2022/06/12 09:28:31;;;;;;;0.90;0.90;;;39.10;28.50;;;;;;5118381;28;20408;-71
2022/06/12 09:31:10;;;;;;;0.97;0.97;;;38.60;29.80;;;;;;5118085;28;20394;-70
2022/06/12 09:33:56;;;;;;;0.40;0.40;;;38.60;28.70;;;;;;5117837;28;20430;-71
2022/06/12 09:36:34;;;;;;;0.60;0.60;;;38.50;30.50;;;;;;5117303;28;20815;-70
2022/06/12 09:39:27;;;;;;;0.40;0.30;;;38.70;30.80;;;;;;5117992;27;20438;-71
2022/06/12 09:42:07;;;;;;;0.50;0.50;;;38.40;30.30;;;;;;5117975;28;20787;-70
2022/06/12 09:44:44;;;;;;;0.40;0.30;;;38.30;28.70;;;;;;5117674;28;20398;-70
2022/06/12 09:47:33;;;;;;;0.40;0.40;;;38.10;30.00;;;;;;5117726;28;20405;-70
2022/06/12 09:50:05;;;;;;;0.40;0.30;;;38.40;30.00;;;;;;5096886;28;20422;-71
2022/06/12 09:52:52;;;;;;;0.40;0.40;;;38.60;28.50;;;;;;5117270;28;20551;-70
2022/06/12 09:55:27;;;;;;;0.40;0.30;;;37.80;28.90;;;;;;5117936;28;20394;-69
2022/06/12 09:57:57;;;;;;;0.40;0.30;;;37.20;30.40;;;;;;5117403;28;20738;-70
2022/06/12 10:00:38;;;;;;;0.57;0.57;;;36.70;30.60;;;;;;5117440;28;20760;-70
2022/06/12 10:03:10;;;;;;;0.40;0.33;;;36.40;31.20;;;;;;5117159;28;20442;-70
2022/06/12 10:05:43;;;;;;;0.50;0.40;;;36.10;32.30;;;;;;5117157;28;20504;-71
2022/06/12 10:08:18;;;;;;;0.40;0.30;;;36.30;32.40;;;;;;5117382;27;20757;-71
2022/06/12 10:10:56;;;;;;;0.40;0.30;;;36.60;31.30;;;;;;5117230;28;20897;-71
2022/06/12 10:13:31;;;;;;;0.40;0.30;;;36.70;33.60;;;;;;5116892;28;20857;-69
2022/06/12 10:16:13;;;;;;;0.40;0.40;;;36.30;31.80;;;;;;5117001;28;20382;-70
2022/06/12 10:18:44;;;;;;;0.40;0.40;;;36.20;32.90;;;;;;5117424;28;20408;-70
2022/06/12 10:21:15;;;;;;;0.53;0.37;;;35.60;35.90;;;;;;5117299;28;20454;-71
2022/06/12 10:23:41;;;;;;;0.40;0.30;;;35.50;34.20;;;;;;5116328;28;20441;-71
2022/06/12 10:26:27;;;;;;;0.40;0.30;;;35.40;32.90;;;;;;5116715;28;20402;-70
2022/06/12 10:29:09;;;;;;;0.30;0.30;;;35.30;32.00;;;;;;5116893;28;20176;-70
2022/06/12 10:31:47;;;;;;;0.40;0.40;;;35.00;33.50;;;;;;5116813;28;20446;-71
2022/06/12 10:34:20;;;;;;;0.40;0.30;;;34.30;34.30;;;;;;5116499;28;20509;-70
2022/06/12 10:36:47;;;;;;;0.53;0.53;;;34.10;36.60;;;;;;5116814;28;20458;-69
2022/06/12 10:39:22;;;;;;;1.23;0.97;;;34.00;34.70;;;;;;5116779;28;20402;-69
2022/06/12 10:42:01;;;;;;;0.40;0.40;;;33.90;35.50;;;;;;5116796;27;20771;-70
2022/06/12 10:44:37;;;;;;;0.40;0.40;;;33.80;36.90;;;;;;5116481;28;20799;-70
2022/06/12 10:47:08;;;;;;;0.50;0.50;;;33.60;36.20;;;;;;5116660;28;20441;-71
2022/06/12 10:49:34;;;;;;;0.70;0.70;;;33.20;35.70;;;;;;5116373;28;20398;-70
2022/06/12 10:52:13;;;;;;;0.30;0.30;;;33.00;37.10;;;;;;5116453;28;20472;-70
2022/06/12 10:54:39;;;;;;;0.40;0.40;;;32.70;36.80;;;;;;5116348;28;20526;-69
2022/06/12 10:57:10;;;;;;;0.40;0.40;;;32.50;37.60;;;;;;5116510;28;20407;-69
2022/06/12 10:59:41;;;;;;;0.40;0.40;;;31.90;39.00;;;;;;5116446;28;20249;-70
2022/06/12 11:02:06;;;;;;;0.40;0.40;;;31.50;36.60;;;;;;5116369;28;20402;-70
2022/06/12 11:05:03;;;;;;;0.33;0.33;;;31.30;39.60;;;;;;5116338;28;20812;-70
2022/06/12 11:07:40;;;;;;;0.40;0.40;;;31.10;38.20;;;;;;5116249;27;20183;-70
2022/06/12 11:10:38;;;;;;;0.40;0.40;;;31.00;38.40;;;;;;5116230;28;20444;-70
2022/06/12 11:13:23;;;;;;;0.40;0.40;;;30.80;40.90;;;;;;5115536;28;20461;-71
2022/06/12 11:15:56;;;;;;;0.37;0.37;;;30.50;37.30;;;;;;5116081;28;20894;-70
2022/06/12 11:18:32;;;;;;;0.40;0.40;;;30.40;36.60;;;;;;5116098;28;20760;-71
2022/06/12 11:21:07;;;;;;;0.50;0.40;;;30.20;37.80;;;;;;5115837;27;20398;-71
2022/06/12 11:24:17;;;;;;;0.30;0.30;;;30.00;39.70;;;;;;5115418;28;20549;-69
2022/06/12 11:27:01;;;;;;;4.80;1.00;;;30.00;39.30;;;;;;5061231;28;20416;-70
2022/06/12 11:30:01;;;;;;;0.40;0.40;;;29.80;37.80;;;;;;5115634;28;20795;-71
2022/06/12 11:32:36;;;;;;;0.80;0.80;;;29.50;38.60;;;;;;5115174;28;20854;-69
2022/06/12 11:35:22;;;;;;;0.30;0.30;;;29.20;38.70;;;;;;5115498;28;20750;-70
2022/06/12 11:37:58;;;;;;;0.37;0.37;;;29.20;38.10;;;;;;5115218;28;20405;-70
2022/06/12 11:40:45;;;;;;;0.43;0.43;;;29.10;39.30;;;;;;5115653;28;20389;-70
2022/06/12 11:43:25;;;;;;;0.77;0.40;;;29.10;39.10;;;;;;5115095;28;20425;-70
2022/06/12 11:46:18;;;;;;;0.40;0.40;;;29.00;40.00;;;;;;5115543;28;20410;-71
2022/06/12 11:49:10;;;;;;;0.47;0.47;;;28.80;40.10;;;;;;5115320;28;20398;-70
2022/06/12 11:51:36;;;;;;;0.30;0.30;;;28.70;38.30;;;;;;5115364;28;20448;-70
2022/06/12 11:54:39;;;;;;;0.40;0.40;;;28.60;40.00;;;;;;5114862;28;20397;-71
2022/06/12 11:57:19;;;;;;;0.30;0.30;;;28.50;39.90;;;;;;5113553;28;20186;-71
2022/06/12 12:00:16;;;;;;;0.50;0.50;;;28.50;38.80;;;;;;5115278;28;20870;-71
2022/06/12 12:02:44;;;;;;;0.30;0.30;;;28.70;43.30;;;;;;5077655;28;20435;-69
2022/06/12 12:05:10;;;;;;;0.30;0.30;;;28.60;39.70;;;;;;5115237;28;20393;-70
2022/06/12 12:07:58;;;;;;;0.40;0.40;;;28.50;38.30;;;;;;5114794;28;20406;-70
2022/06/12 12:10:23;;;;;;;0.30;0.30;;;28.50;38.00;;;;;;5115000;28;20201;-70
2022/06/12 12:12:55;;;;;;;0.30;0.30;;;28.60;38.70;;;;;;5114610;28;20496;-71
2022/06/12 12:15:42;;;;;;;0.40;0.40;;;28.60;35.60;;;;;;5114996;28;20183;-70
2022/06/12 12:18:21;;;;;;;0.60;0.60;;;28.50;38.30;;;;;;5114904;28;20432;-71
2022/06/12 12:20:50;;;;;;;0.33;0.33;;;28.40;38.00;;;;;;5114870;28;20405;-71
2022/06/12 12:23:23;;;;;;;0.30;0.30;;;28.30;36.80;;;;;;5114483;28;20449;-71
2022/06/12 12:25:59;;;;;;;0.30;0.30;;;28.40;37.90;;;;;;5114606;28;20432;-70
2022/06/12 12:28:40;;;;;;;0.50;0.50;;;28.60;38.10;;;;;;5114647;28;20398;-70
2022/06/12 12:31:09;;;;;;;0.30;0.30;;;28.70;35.30;;;;;;5114560;28;20413;-69
2022/06/12 12:33:38;;;;;;;1.13;0.50;;;28.50;34.10;;;;;;5114254;28;20506;-71
2022/06/12 12:41:45;;;;;;;0.40;0.40;;;28.40;26.20;;;;;;5114498;28;20401;-70
2022/06/12 12:44:15;;;;;;;0.30;0.30;;;28.40;27.70;;;;;;5113914;28;20425;-71
2022/06/12 12:46:52;;;;;;;0.30;0.30;;;28.60;31.40;;;;;;5114559;28;20381;-71
2022/06/12 12:49:30;;;;;;;0.30;0.30;;;28.60;29.40;;;;;;5114635;28;20427;-70
2022/06/12 12:52:11;;;;;;;0.30;0.30;;;28.50;30.00;;;;;;5114271;28;20495;-71
2022/06/12 12:54:50;;;;;;;0.40;0.40;;;28.20;32.00;;;;;;5114194;28;20718;-70
2022/06/12 12:57:33;;;;;;;0.30;0.30;;;28.00;31.60;;;;;;5114696;28;20389;-70
2022/06/12 13:00:00;;;;;;;0.30;0.30;;;27.90;34.70;;;;;;5114312;28;20478;-70
2022/06/12 13:02:46;;;;;;;0.30;0.30;;;27.90;35.60;;;;;;5113945;28;20444;-71
2022/06/12 13:05:25;;;;;;;0.30;0.30;;;28.10;32.50;;;;;;5113978;28;20406;-69
2022/06/12 13:08:32;;;;;;;0.30;0.30;;;28.00;32.80;;;;;;5114385;28;20402;-71
2022/06/12 13:11:06;;;;;;;0.63;0.63;;;28.20;33.40;;;;;;5114009;28;20968;-70
2022/06/12 13:14:02;;;;;;;0.30;0.30;;;28.20;38.50;;;;;;5113813;28;20456;-70
2022/06/12 13:17:01;;;;;;;0.30;0.30;;;28.20;36.40;;;;;;5114055;28;20485;-70
2022/06/12 13:19:58;;;;;;;0.30;0.30;;;28.20;32.50;;;;;;5093969;28;20756;-70
2022/06/12 13:22:51;;;;;;;0.30;0.30;;;28.00;35.20;;;;;;5113720;28;20815;-70
2022/06/12 13:25:29;;;;;;;0.33;0.33;;;27.70;33.80;;;;;;5113900;28;20431;-70
2022/06/12 13:27:58;;;;;;;0.30;0.30;;;27.80;36.10;;;;;;5114070;28;20390;-70
2022/06/12 13:30:28;;;;;;;0.40;0.40;;;28.00;35.70;;;;;;5113779;28;20394;-70
2022/06/12 13:32:53;;;;;;;1.37;1.37;;;27.90;33.50;;;;;;5113415;28;20815;-70
2022/06/12 13:35:29;;;;;;;0.30;0.30;;;28.00;33.40;;;;;;5113738;28;20377;-70
2022/06/12 13:38:01;;;;;;;0.50;0.50;;;28.00;34.30;;;;;;5113830;28;20172;-70